Time;durP1;ratioP1;P1;durP2;ratioP2;P2;SDS_P1;SDS_P2;PMS_P1;PMS_P2;Temp;Humidity;BMP_temperature;BMP_pressure;BME280_temperature;BME280_humidity;BME280_pressure;Samples;Min_cycle;Max_cycle;Signal;HPM_P1;HPM_P2
2022/11/01 00:02:13;;;;;;;4.25;3.42;;;17.70;68.70;;;;;;5049857;28;20049;-50
2022/11/01 00:04:40;;;;;;;7.32;3.35;;;17.80;68.60;;;;;;5030835;28;20501;-50
2022/11/01 00:07:09;;;;;;;6.43;3.22;;;17.90;68.50;;;;;;5041733;28;20043;-50
2022/11/01 00:09:37;;;;;;;5.20;3.17;;;18.00;68.40;;;;;;5049980;28;20068;-50
2022/11/01 00:12:06;;;;;;;4.53;2.85;;;18.10;68.20;;;;;;5033542;28;20115;-51
2022/11/01 00:14:36;;;;;;;7.07;2.80;;;18.20;67.90;;;;;;5039161;28;20038;-52
2022/11/01 00:17:05;;;;;;;5.72;3.92;;;18.30;67.80;;;;;;5022393;28;20534;-50
2022/11/01 00:19:32;;;;;;;6.32;3.65;;;18.40;67.60;;;;;;5028660;28;20044;-54
2022/11/01 00:21:58;;;;;;;5.65;3.13;;;18.50;67.50;;;;;;5028327;28;20041;-49
2022/11/01 00:24:30;;;;;;;9.18;3.28;;;18.60;67.40;;;;;;5042813;28;20033;-50
2022/11/01 00:26:57;;;;;;;5.32;3.17;;;18.70;67.10;;;;;;5041845;28;20048;-49
2022/11/01 00:29:23;;;;;;;5.93;3.38;;;18.80;66.80;;;;;;5043013;28;20041;-52
2022/11/01 00:31:53;;;;;;;6.05;3.75;;;18.80;66.70;;;;;;5042325;28;20072;-50
2022/11/01 00:34:22;;;;;;;8.07;2.95;;;18.90;66.50;;;;;;5045014;28;20045;-49
2022/11/01 00:36:53;;;;;;;5.15;3.05;;;19.00;66.40;;;;;;5053586;28;20103;-49
2022/11/01 00:39:22;;;;;;;4.93;2.95;;;19.00;66.20;;;;;;5030669;28;20039;-51
2022/11/01 00:41:54;;;;;;;;;;;19.10;66.30;;;;;;5035204;28;20048;-50
2022/11/01 00:44:21;;;;;;;6.15;2.90;;;19.20;66.40;;;;;;5040410;28;19924;-51
2022/11/01 00:46:50;;;;;;;7.53;3.35;;;19.30;65.90;;;;;;5051810;28;20517;-51
2022/11/01 00:49:20;;;;;;;4.78;3.30;;;19.30;65.70;;;;;;5042587;28;20442;-50
2022/11/01 00:51:46;;;;;;;4.65;2.78;;;19.40;65.70;;;;;;5033623;28;20049;-50
2022/11/01 00:54:17;;;;;;;6.63;3.72;;;19.40;65.60;;;;;;5044388;28;20556;-50
2022/11/01 00:56:44;;;;;;;5.47;3.05;;;19.50;65.50;;;;;;5053340;28;20053;-50
2022/11/01 00:59:16;;;;;;;7.40;3.75;;;19.50;65.60;;;;;;5030588;28;20092;-50
2022/11/01 01:01:45;;;;;;;3.00;2.60;;;19.50;65.50;;;;;;5034086;28;20042;-52
2022/11/01 01:04:12;;;;;;;4.78;2.78;;;19.50;65.60;;;;;;5044344;28;20405;-51
2022/11/01 01:06:39;;;;;;;6.95;3.15;;;19.50;65.50;;;;;;5039389;28;20049;-53
2022/11/01 01:09:07;;;;;;;4.55;2.63;;;19.60;65.60;;;;;;5035810;28;20106;-49
2022/11/01 01:11:33;;;;;;;3.30;2.78;;;19.60;65.70;;;;;;5043084;28;20034;-51
2022/11/01 01:14:06;;;;;;;5.03;2.65;;;19.60;65.60;;;;;;5051853;28;20520;-52
2022/11/01 01:16:33;;;;;;;3.85;2.50;;;19.60;65.60;;;;;;5038561;28;20048;-49
2022/11/01 01:19:03;;;;;;;3.08;2.60;;;19.60;65.60;;;;;;5029652;28;20043;-51
2022/11/01 01:21:29;;;;;;;3.47;2.83;;;19.60;65.70;;;;;;5043504;28;20673;-48
2022/11/01 01:23:58;;;;;;;5.75;2.85;;;19.60;65.60;;;;;;5033388;28;20065;-51
2022/11/01 01:26:29;;;;;;;5.35;2.90;;;19.60;65.50;;;;;;5028115;28;20521;-49
2022/11/01 01:29:02;;;;;;;4.00;2.78;;;19.60;65.60;;;;;;5037189;28;20049;-53
2022/11/01 01:31:30;;;;;;;5.38;2.30;;;19.60;65.60;;;;;;5043935;28;20451;-50
2022/11/01 01:33:57;;;;;;;4.88;3.15;;;19.60;65.60;;;;;;5051845;28;20047;-49
2022/11/01 01:36:26;;;;;;;2.92;2.50;;;19.60;65.60;;;;;;5035171;28;20050;-49
2022/11/01 01:38:53;;;;;;;3.78;2.63;;;19.60;65.60;;;;;;5035867;28;20124;-51
2022/11/01 01:44:46;;;;;;;4.95;2.95;;;19.60;65.70;;;;;;5033719;28;20409;-50
2022/11/01 01:47:24;;;;;;;6.47;3.08;;;19.70;65.70;;;;;;5032268;28;20569;-50
2022/11/01 01:50:06;;;;;;;4.53;2.75;;;19.60;65.60;;;;;;5028302;28;20091;-50
2022/11/01 01:52:57;;;;;;;4.70;2.70;;;19.60;65.70;;;;;;5043068;28;20494;-51
2022/11/01 01:55:31;;;;;;;3.42;2.55;;;19.60;65.70;;;;;;5014419;28;20112;-50
2022/11/01 01:58:00;;;;;;;4.03;2.33;;;19.50;65.70;;;;;;5035813;28;20102;-51
2022/11/01 02:00:27;;;;;;;3.03;2.72;;;19.50;65.70;;;;;;5041982;28;20040;-50
2022/11/01 02:02:54;;;;;;;4.57;2.72;;;19.50;65.80;;;;;;5051760;28;20041;-50
2022/11/01 02:05:32;;;;;;;4.63;3.05;;;19.40;65.90;;;;;;5026900;28;20056;-49
2022/11/01 02:08:01;;;;;;;5.28;2.70;;;19.40;66.00;;;;;;5040779;28;20520;-49
2022/11/01 02:10:32;;;;;;;3.00;2.70;;;19.40;66.10;;;;;;5047529;28;20048;-50
2022/11/01 02:13:01;;;;;;;5.57;2.70;;;19.30;66.20;;;;;;5034699;28;20039;-51
2022/11/01 02:15:42;;;;;;;3.42;2.67;;;19.30;66.30;;;;;;5030517;28;20037;-50
2022/11/01 02:18:49;;;;;;;5.03;2.33;;;19.30;66.50;;;;;;5043226;28;20040;-52
2022/11/01 02:21:43;;;;;;;3.17;2.63;;;19.30;66.60;;;;;;5048975;28;20037;-51
2022/11/01 02:24:43;;;;;;;4.43;2.53;;;19.30;66.70;;;;;;5038328;28;20443;-50
2022/11/01 02:27:35;;;;;;;3.03;2.63;;;19.20;66.80;;;;;;5038128;28;20115;-49
2022/11/01 02:30:20;;;;;;;4.28;2.97;;;19.20;66.90;;;;;;5051025;28;20091;-50
2022/11/01 02:33:06;;;;;;;3.10;2.42;;;19.10;66.80;;;;;;5035023;28;20045;-49
2022/11/01 02:35:54;;;;;;;5.03;3.00;;;19.10;67.10;;;;;;5044271;28;20041;-50
2022/11/01 02:38:25;;;;;;;4.13;2.75;;;19.10;67.30;;;;;;5040386;28;20041;-49
2022/11/01 02:40:52;;;;;;;3.58;2.65;;;19.10;67.40;;;;;;5033950;28;20134;-53
2022/11/01 02:43:26;;;;;;;3.47;2.33;;;19.10;67.40;;;;;;5042142;28;20042;-53
2022/11/01 02:46:59;;;;;;;2.50;2.30;;;19.00;67.50;;;;;;5048716;28;20049;-52
2022/11/01 02:48:48;;;;;;;5.50;2.60;;;19.00;67.70;;;;;;5036245;28;20549;-52
2022/11/01 02:51:18;;;;;;;4.65;2.65;;;19.00;67.70;;;;;;5034704;28;20523;-50
2022/11/01 02:53:53;;;;;;;5.90;2.67;;;19.00;67.80;;;;;;5031305;28;20425;-49
2022/11/01 02:56:26;;;;;;;4.13;2.83;;;19.00;67.80;;;;;;5042441;28;20075;-49
2022/11/01 02:58:57;;;;;;;7.25;2.53;;;19.10;67.90;;;;;;5050714;28;20048;-53
2022/11/01 03:01:29;;;;;;;6.15;2.92;;;19.00;68.00;;;;;;5036697;28;20029;-49
2022/11/01 03:03:58;;;;;;;4.18;2.60;;;19.00;67.90;;;;;;5050247;23;20091;-48
2022/11/01 03:06:45;;;;;;;4.88;2.70;;;19.00;68.00;;;;;;5015735;28;20044;-46
2022/11/01 03:09:13;;;;;;;2.78;2.53;;;19.10;68.10;;;;;;5010085;28;20514;-49
2022/11/01 03:12:00;;;;;;;5.20;2.47;;;19.10;68.00;;;;;;5009091;28;20065;-50
2022/11/01 03:14:45;;;;;;;5.40;2.90;;;19.10;68.10;;;;;;5026264;28;20046;-47
2022/11/01 03:17:27;;;;;;;5.93;2.90;;;19.10;68.00;;;;;;5023433;28;20049;-48
2022/11/01 03:20:11;;;;;;;3.08;2.13;;;19.10;68.00;;;;;;5028714;28;20042;-50
2022/11/01 03:22:45;;;;;;;5.28;2.40;;;19.10;67.90;;;;;;5034388;28;20047;-46
2022/11/01 03:25:49;;;;;;;6.75;2.72;;;19.10;67.80;;;;;;5037253;28;20048;-51
2022/11/01 03:28:20;;;;;;;4.28;2.72;;;19.10;67.80;;;;;;5025874;28;20054;-46
2022/11/01 03:31:06;;;;;;;4.40;2.38;;;19.20;67.80;;;;;;5025323;28;20150;-46
2022/11/01 03:33:37;;;;;;;3.90;2.22;;;19.20;67.70;;;;;;5038439;28;20037;-47
2022/11/01 03:36:12;;;;;;;4.97;2.38;;;19.20;67.70;;;;;;5010021;28;20536;-47
2022/11/01 03:38:52;;;;;;;5.95;2.65;;;19.20;67.60;;;;;;5014199;28;20037;-47
2022/11/01 03:41:21;;;;;;;3.63;2.50;;;19.20;67.60;;;;;;5031034;28;20064;-48
2022/11/01 03:43:49;;;;;;;6.00;3.35;;;19.20;67.60;;;;;;5039274;28;20421;-47
2022/11/01 03:46:17;;;;;;;4.18;2.53;;;19.20;67.50;;;;;;5050422;28;20048;-48
2022/11/01 03:48:46;;;;;;;5.00;2.47;;;19.20;67.50;;;;;;5037565;28;20057;-46
2022/11/01 03:51:13;;;;;;;2.88;2.65;;;19.20;67.50;;;;;;5042709;28;20056;-47
2022/11/01 03:53:47;;;;;;;4.32;2.30;;;19.20;67.50;;;;;;5048008;28;20532;-46
2022/11/01 03:56:15;;;;;;;3.60;2.72;;;19.20;67.50;;;;;;5047128;28;20102;-47
2022/11/01 03:58:48;;;;;;;6.35;2.47;;;19.20;67.50;;;;;;5036019;28;20049;-47
2022/11/01 04:01:21;;;;;;;3.03;2.20;;;19.20;67.40;;;;;;5041537;28;20033;-47
2022/11/01 04:03:47;;;;;;;3.35;2.38;;;19.20;67.30;;;;;;5036472;28;20096;-48
2022/11/01 04:06:14;;;;;;;4.25;2.50;;;19.20;67.20;;;;;;5040175;28;20037;-46
2022/11/01 04:08:43;;;;;;;3.95;2.50;;;19.20;67.00;;;;;;5043735;28;20046;-47
2022/11/01 04:11:14;;;;;;;6.00;2.40;;;19.20;67.00;;;;;;5045273;28;20493;-49
2022/11/01 04:13:42;;;;;;;1.85;1.70;;;19.20;66.80;;;;;;5053398;28;20494;-46
2022/11/01 04:21:54;;;;;;;8.13;2.85;;;19.30;66.40;;;;;;5052486;28;20041;-48
2022/11/01 04:24:21;;;;;;;4.50;2.30;;;19.30;66.30;;;;;;5037686;28;20777;-48
2022/11/01 04:26:47;;;;;;;5.82;2.30;;;19.20;66.10;;;;;;5034649;28;20069;-50
2022/11/01 04:29:25;;;;;;;2.97;2.28;;;19.20;66.00;;;;;;5036948;28;20452;-48
2022/11/01 04:31:57;;;;;;;;;;;19.30;65.70;;;;;;5053803;28;20409;-50
2022/11/01 04:34:42;;;;;;;3.30;1.77;;;19.40;66.00;;;;;;5049177;28;19943;-50
2022/11/01 04:37:10;;;;;;;2.97;1.55;;;19.30;64.90;;;;;;5036044;28;20123;-51
2022/11/01 04:39:40;;;;;;;2.20;1.42;;;19.30;64.30;;;;;;5045073;28;20071;-48
2022/11/01 04:42:12;;;;;;;5.47;1.83;;;19.30;63.90;;;;;;5053616;28;20036;-51
2022/11/01 04:44:39;;;;;;;3.70;1.38;;;19.30;63.50;;;;;;5025986;28;20061;-51
2022/11/01 04:47:05;;;;;;;4.15;2.30;;;19.30;63.20;;;;;;5038006;28;20523;-51
2022/11/01 04:49:36;;;;;;;4.15;1.40;;;19.30;62.70;;;;;;5044009;28;20048;-51
2022/11/01 04:52:03;;;;;;;3.45;1.50;;;19.30;62.50;;;;;;5046488;28;20044;-50
2022/11/01 04:54:36;;;;;;;2.78;1.25;;;19.20;62.00;;;;;;5050633;28;20139;-49
2022/11/01 04:57:05;;;;;;;3.53;1.60;;;19.30;61.90;;;;;;5041274;28;20041;-46
2022/11/01 04:59:35;;;;;;;2.70;1.00;;;19.30;61.50;;;;;;5032980;28;20037;-51
2022/11/01 05:02:01;;;;;;;1.63;1.15;;;19.20;61.40;;;;;;5030741;28;20413;-47
2022/11/01 05:04:31;;;;;;;2.28;0.80;;;19.20;61.10;;;;;;5024667;28;20037;-49
2022/11/01 05:07:00;;;;;;;1.42;0.93;;;19.20;60.60;;;;;;5040938;28;20132;-48
2022/11/01 05:09:29;;;;;;;2.72;1.73;;;19.20;60.90;;;;;;5048454;28;20072;-48
2022/11/01 05:11:56;;;;;;;1.73;1.10;;;19.30;60.90;;;;;;5038592;28;20115;-48
2022/11/01 05:14:23;;;;;;;2.00;1.13;;;19.20;60.70;;;;;;5040795;28;20048;-49
2022/11/01 05:16:59;;;;;;;3.70;1.33;;;19.20;60.50;;;;;;5034031;28;20046;-51
2022/11/01 05:19:30;;;;;;;1.95;1.40;;;19.10;60.10;;;;;;5031808;28;20049;-49
2022/11/01 05:22:00;;;;;;;3.00;1.20;;;19.10;60.30;;;;;;5030055;28;20051;-51
2022/11/01 05:24:27;;;;;;;1.65;0.85;;;19.00;60.10;;;;;;5043819;28;20045;-47
2022/11/01 05:26:58;;;;;;;1.73;1.17;;;19.00;60.30;;;;;;5033406;28;20492;-51
2022/11/01 05:29:28;;;;;;;2.90;1.10;;;19.00;60.40;;;;;;5027837;28;20069;-51
2022/11/01 05:31:59;;;;;;;4.45;1.17;;;18.90;60.40;;;;;;5036550;28;20072;-49
2022/11/01 05:34:26;;;;;;;1.95;1.25;;;18.90;60.50;;;;;;5043865;28;20481;-51
2022/11/01 05:36:52;;;;;;;2.05;1.00;;;18.80;60.30;;;;;;5052334;28;20056;-48
2022/11/01 05:39:21;;;;;;;1.55;0.90;;;18.80;60.30;;;;;;5032945;28;20037;-51
2022/11/01 05:41:52;;;;;;;2.78;1.13;;;18.70;60.20;;;;;;5033152;28;20049;-49
2022/11/01 05:44:24;;;;;;;2.57;1.00;;;18.70;60.00;;;;;;5034822;28;20056;-51
2022/11/01 05:46:50;;;;;;;2.30;1.00;;;18.70;60.10;;;;;;5050533;28;20284;-47
2022/11/01 05:49:17;;;;;;;1.40;0.75;;;18.60;60.00;;;;;;5043387;28;20389;-48
2022/11/01 05:51:43;;;;;;;2.63;0.93;;;18.50;59.70;;;;;;5044929;28;20045;-46
2022/11/01 05:54:10;;;;;;;1.98;0.80;;;18.50;59.60;;;;;;5044654;28;20045;-48
2022/11/01 05:56:38;;;;;;;3.40;0.80;;;18.40;59.50;;;;;;5048220;28;20099;-49
2022/11/01 05:59:07;;;;;;;2.28;0.60;;;18.30;59.20;;;;;;5034109;28;20077;-51
2022/11/01 06:01:34;;;;;;;2.03;0.70;;;18.30;59.10;;;;;;5028730;28;20545;-50
2022/11/01 06:04:06;;;;;;;7.22;1.58;;;18.20;59.10;;;;;;5035358;28;20063;-50
2022/11/01 06:06:33;;;;;;;0.77;0.60;;;18.20;58.90;;;;;;5035532;28;20065;-51
2022/11/01 06:09:02;;;;;;;1.65;0.63;;;18.10;58.60;;;;;;5031496;28;20052;-51
2022/11/01 06:11:29;;;;;;;4.32;1.58;;;18.10;58.30;;;;;;5038018;28;20033;-46
2022/11/01 06:13:57;;;;;;;1.67;0.60;;;18.00;58.50;;;;;;5036844;28;20038;-52
2022/11/01 06:16:29;;;;;;;1.92;0.32;;;17.90;57.80;;;;;;5037391;28;20061;-50
2022/11/01 06:19:02;;;;;;;3.50;0.50;;;17.80;57.70;;;;;;5032990;28;20463;-50
2022/11/01 06:21:30;;;;;;;5.50;0.85;;;17.80;57.90;;;;;;5042926;28;20398;-48
2022/11/01 06:23:58;;;;;;;1.98;0.40;;;17.70;58.00;;;;;;5032608;28;20047;-49
2022/11/01 06:26:30;;;;;;;4.40;0.80;;;17.70;58.30;;;;;;5032259;28;20106;-50
2022/11/01 06:29:00;;;;;;;3.00;0.85;;;17.60;58.30;;;;;;5038954;28;20076;-47
2022/11/01 06:31:32;;;;;;;3.15;0.60;;;17.60;58.40;;;;;;5043601;28;20516;-49
2022/11/01 06:34:02;;;;;;;3.95;1.30;;;17.50;58.20;;;;;;5051466;28;20102;-49
2022/11/01 06:36:32;;;;;;;2.88;1.65;;;17.40;58.50;;;;;;5046157;28;20509;-48
2022/11/01 06:38:58;;;;;;;2.63;0.70;;;17.40;58.70;;;;;;5043140;28;20041;-49
2022/11/01 06:41:25;;;;;;;3.25;0.50;;;17.30;58.70;;;;;;5042958;28;20039;-47
2022/11/01 06:43:52;;;;;;;0.80;0.40;;;17.20;58.80;;;;;;5051064;28;20069;-49
2022/11/01 06:46:18;;;;;;;4.00;0.65;;;17.30;58.90;;;;;;5035800;28;20497;-47
2022/11/01 06:48:47;;;;;;;0.85;0.47;;;17.20;58.90;;;;;;5029458;28;20736;-49
2022/11/01 06:51:22;;;;;;;1.38;0.55;;;17.10;58.90;;;;;;5032322;28;20040;-49
2022/11/01 06:53:51;;;;;;;3.53;1.45;;;17.10;59.00;;;;;;5032060;28;20041;-49
2022/11/01 06:56:22;;;;;;;1.90;0.77;;;17.10;59.10;;;;;;5027320;28;20072;-50
2022/11/01 06:58:49;;;;;;;4.32;0.60;;;17.00;59.00;;;;;;5043275;28;20517;-50
2022/11/01 07:01:17;;;;;;;2.00;0.50;;;17.00;59.10;;;;;;5037106;28;20384;-50
2022/11/01 07:03:51;;;;;;;4.45;0.95;;;17.00;59.20;;;;;;5030668;28;20413;-49
2022/11/01 07:06:19;;;;;;;1.80;0.55;;;16.90;59.10;;;;;;5033056;28;20051;-51
2022/11/01 07:08:50;;;;;;;3.17;0.63;;;16.90;59.30;;;;;;5029335;28;20413;-48
2022/11/01 07:11:20;;;;;;;2.85;0.57;;;16.90;59.20;;;;;;5026541;28;20056;-48
2022/11/01 07:13:55;;;;;;;6.40;1.10;;;16.80;59.20;;;;;;5032732;28;20107;-50
2022/11/01 07:16:24;;;;;;;2.15;0.70;;;16.80;59.30;;;;;;5027787;28;20065;-49
2022/11/01 07:19:01;;;;;;;1.60;0.43;;;16.80;59.30;;;;;;5047787;28;20047;-48
2022/11/01 07:21:41;;;;;;;2.70;0.70;;;16.80;59.40;;;;;;5035075;28;20052;-47
2022/11/01 07:24:08;;;;;;;2.90;0.90;;;16.70;59.20;;;;;;5028941;28;20121;-49
2022/11/01 07:26:35;;;;;;;2.95;0.65;;;16.70;59.30;;;;;;5015150;28;20041;-47
2022/11/01 07:29:01;;;;;;;2.00;0.55;;;16.70;59.20;;;;;;5032071;28;20152;-47
2022/11/01 07:31:29;;;;;;;2.90;0.55;;;16.70;59.10;;;;;;5025120;28;20041;-48
2022/11/01 07:33:55;;;;;;;1.92;0.70;;;16.70;58.80;;;;;;5032718;28;20052;-49
2022/11/01 07:36:22;;;;;;;2.63;0.70;;;16.70;58.60;;;;;;5035382;28;20128;-48
2022/11/01 07:38:49;;;;;;;3.60;0.82;;;16.70;58.50;;;;;;5037073;28;20071;-50
2022/11/01 07:41:16;;;;;;;4.30;0.85;;;16.70;58.40;;;;;;5041895;28;20041;-48
2022/11/01 07:43:42;;;;;;;4.30;0.70;;;16.60;58.30;;;;;;5040708;28;20398;-49
2022/11/01 07:46:09;;;;;;;4.35;1.02;;;16.70;58.30;;;;;;5030077;28;20041;-47
2022/11/01 07:48:36;;;;;;;3.22;0.90;;;16.60;58.20;;;;;;5026931;28;20038;-52
2022/11/01 07:51:04;;;;;;;4.72;0.70;;;16.60;58.10;;;;;;5048788;28;20140;-52
2022/11/01 07:53:31;;;;;;;3.70;0.75;;;16.60;58.10;;;;;;5039351;28;20519;-51
2022/11/01 07:56:00;;;;;;;3.53;0.82;;;16.60;58.30;;;;;;5042623;28;20502;-47
2022/11/01 07:58:27;;;;;;;3.58;0.90;;;16.60;58.10;;;;;;5041169;28;20055;-52
2022/11/01 08:00:54;;;;;;;4.00;0.98;;;16.60;57.90;;;;;;5029293;28;20065;-51
2022/11/01 08:03:21;;;;;;;3.67;1.20;;;16.60;57.90;;;;;;5045337;28;20040;-48
2022/11/01 08:05:47;;;;;;;6.00;0.90;;;16.60;57.50;;;;;;5046696;28;20120;-51
2022/11/01 08:08:15;;;;;;;5.47;0.85;;;16.60;57.60;;;;;;5034251;28;20041;-47
2022/11/01 08:10:42;;;;;;;4.80;1.08;;;16.60;57.50;;;;;;5028195;28;20049;-48
2022/11/01 08:13:16;;;;;;;6.85;1.30;;;16.60;57.40;;;;;;5040676;28;20613;-47
2022/11/01 08:15:46;;;;;;;5.40;1.60;;;16.50;57.20;;;;;;5043621;28;20079;-52
2022/11/01 08:18:14;;;;;;;6.38;1.90;;;16.60;57.30;;;;;;5029873;28;20056;-52
2022/11/01 08:20:40;;;;;;;4.57;1.00;;;16.60;57.00;;;;;;5045896;28;20044;-47
2022/11/01 08:23:07;;;;;;;5.90;1.33;;;16.60;56.90;;;;;;5032624;28;20080;-47
2022/11/01 08:25:34;;;;;;;2.20;0.75;;;16.60;56.90;;;;;;5031414;28;20037;-51
2022/11/01 08:28:06;;;;;;;3.50;0.90;;;16.60;56.80;;;;;;5043200;28;20402;-49
2022/11/01 08:30:33;;;;;;;4.57;1.13;;;16.60;56.80;;;;;;5039907;28;20041;-47
2022/11/01 08:33:01;;;;;;;5.78;1.65;;;16.60;56.70;;;;;;5037351;28;20041;-48
2022/11/01 08:35:30;;;;;;;5.15;1.10;;;16.60;56.80;;;;;;5043323;28;20067;-49
2022/11/01 08:37:59;;;;;;;3.25;1.10;;;16.60;56.80;;;;;;5031426;28;20037;-47
2022/11/01 08:40:27;;;;;;;4.82;1.20;;;16.60;56.80;;;;;;5034963;28;20033;-49
2022/11/01 08:42:54;;;;;;;8.73;1.00;;;16.60;56.70;;;;;;5033763;28;20046;-47
2022/11/01 08:45:21;;;;;;;6.88;1.13;;;16.60;56.70;;;;;;5045714;28;20042;-48
2022/11/01 08:47:48;;;;;;;6.95;1.30;;;16.60;56.60;;;;;;5044449;28;20052;-47
2022/11/01 08:50:16;;;;;;;8.57;2.15;;;16.60;56.70;;;;;;5040929;28;20045;-52
2022/11/01 08:52:43;;;;;;;3.50;1.38;;;16.60;56.40;;;;;;5034273;28;20059;-47
2022/11/01 08:55:10;;;;;;;4.25;1.13;;;16.70;56.60;;;;;;5030050;28;20060;-51
2022/11/01 08:57:37;;;;;;;2.90;0.77;;;16.70;56.60;;;;;;5030396;28;20055;-51
2022/11/01 09:00:11;;;;;;;4.78;1.23;;;16.70;56.70;;;;;;5030080;28;20580;-47
2022/11/01 09:02:37;;;;;;;5.18;1.45;;;16.70;56.80;;;;;;5039053;28;20057;-48
2022/11/01 09:05:05;;;;;;;4.60;0.93;;;16.80;56.80;;;;;;5031304;28;20633;-47
2022/11/01 09:07:36;;;;;;;4.35;2.08;;;16.70;56.80;;;;;;5033605;28;20468;-51
2022/11/01 09:10:04;;;;;;;5.20;1.63;;;16.80;56.60;;;;;;5043504;28;20064;-52
2022/11/01 09:12:31;;;;;;;5.03;1.15;;;16.80;56.80;;;;;;5047479;28;20497;-48
2022/11/01 09:14:57;;;;;;;4.35;1.20;;;16.90;56.90;;;;;;5037369;28;20048;-50
2022/11/01 09:17:27;;;;;;;5.85;1.25;;;16.90;56.70;;;;;;5042887;28;20040;-51
2022/11/01 09:19:54;;;;;;;3.17;1.13;;;16.90;56.70;;;;;;5039392;28;20088;-52
2022/11/01 09:22:21;;;;;;;4.95;1.00;;;16.90;56.70;;;;;;5029347;28;20387;-51
2022/11/01 09:24:48;;;;;;;5.80;1.17;;;17.00;56.80;;;;;;5031546;28;20065;-48
2022/11/01 09:27:15;;;;;;;4.35;1.30;;;17.00;56.70;;;;;;5032676;28;20444;-48
2022/11/01 09:29:41;;;;;;;3.50;1.15;;;17.00;57.30;;;;;;5023194;28;20411;-49
2022/11/01 09:32:13;;;;;;;4.15;0.82;;;17.10;56.80;;;;;;5038446;28;20037;-51
2022/11/01 09:34:44;;;;;;;5.55;1.50;;;17.10;56.60;;;;;;5053561;22;20061;-51
2022/11/01 09:37:10;;;;;;;7.13;1.30;;;17.10;56.50;;;;;;5049676;28;20124;-48
2022/11/01 09:39:37;;;;;;;3.83;0.85;;;17.10;56.50;;;;;;5050761;28;20049;-53
2022/11/01 09:42:09;;;;;;;6.70;1.98;;;17.10;56.40;;;;;;5042294;28;20108;-53
2022/11/01 09:44:41;;;;;;;2.53;1.08;;;17.20;56.60;;;;;;5020300;28;20068;-53
2022/11/01 09:47:19;;;;;;;4.88;0.93;;;17.20;56.60;;;;;;5027427;28;20041;-51
2022/11/01 09:49:51;;;;;;;2.92;0.80;;;17.20;56.40;;;;;;5031408;28;20125;-51
2022/11/01 09:52:21;;;;;;;4.38;0.98;;;17.20;56.40;;;;;;5030600;28;20056;-53
2022/11/01 09:54:48;;;;;;;6.47;1.75;;;17.30;56.30;;;;;;5024064;28;20037;-52
2022/11/01 09:57:20;;;;;;;5.63;2.30;;;17.30;56.30;;;;;;5032285;28;20117;-53
2022/11/01 10:00:15;;;;;;;4.45;0.90;;;17.30;56.30;;;;;;5031072;28;20485;-54
2022/11/01 10:03:00;;;;;;;3.70;1.77;;;17.30;56.10;;;;;;5028576;28;20569;-54
2022/11/01 10:05:51;;;;;;;4.75;1.20;;;17.40;55.90;;;;;;5040202;28;20499;-54
2022/11/01 10:08:26;;;;;;;6.78;1.30;;;17.40;56.00;;;;;;5010501;28;20137;-53
2022/11/01 10:11:16;;;;;;;4.82;1.05;;;17.40;56.20;;;;;;5019777;28;20557;-50
2022/11/01 10:14:20;;;;;;;4.68;2.15;;;17.40;55.80;;;;;;5037247;28;20049;-52
2022/11/01 10:16:53;;;;;;;6.43;1.35;;;17.50;55.70;;;;;;5038283;28;20128;-52
2022/11/01 10:19:22;;;;;;;4.38;1.05;;;17.50;55.70;;;;;;5029869;28;20653;-54
2022/11/01 10:22:00;;;;;;;4.07;2.00;;;17.50;55.80;;;;;;5036074;28;20533;-54
2022/11/01 10:24:39;;;;;;;5.07;1.00;;;17.50;56.60;;;;;;5040383;28;20528;-51
2022/11/01 10:27:30;;;;;;;3.55;1.30;;;17.50;56.20;;;;;;5041888;28;20047;-49
2022/11/01 10:30:14;;;;;;;4.38;1.10;;;17.50;55.90;;;;;;5042248;28;20056;-53
2022/11/01 10:33:01;;;;;;;8.25;2.50;;;17.60;56.00;;;;;;5037917;28;20068;-51
2022/11/01 10:35:50;;;;;;;4.43;1.65;;;17.70;55.70;;;;;;5034799;28;20041;-53
2022/11/01 10:38:35;;;;;;;6.57;1.50;;;17.60;55.60;;;;;;5029853;28;20061;-49
2022/11/01 10:41:41;;;;;;;8.88;1.13;;;17.70;55.30;;;;;;5024588;28;20040;-49
2022/11/01 10:44:33;;;;;;;5.32;1.00;;;17.80;55.40;;;;;;5035167;28;20578;-54
2022/11/01 10:47:05;;;;;;;5.57;1.20;;;17.70;55.70;;;;;;5048542;28;20041;-50
2022/11/01 10:49:39;;;;;;;7.30;1.85;;;17.80;55.80;;;;;;5032786;28;20124;-53
2022/11/01 10:52:36;;;;;;;6.78;1.55;;;17.80;55.50;;;;;;5031251;28;20042;-54
2022/11/01 10:55:04;;;;;;;8.32;1.45;;;17.80;55.40;;;;;;5038682;28;20037;-51
2022/11/01 10:57:37;;;;;;;4.38;1.02;;;17.80;55.60;;;;;;5030440;28;20064;-50
2022/11/01 11:00:06;;;;;;;4.93;1.27;;;17.80;55.50;;;;;;5025491;28;20500;-51
2022/11/01 11:02:42;;;;;;;3.97;1.33;;;17.80;55.60;;;;;;5041267;28;20041;-53
2022/11/01 11:05:13;;;;;;;12.02;2.53;;;17.80;55.30;;;;;;5025227;28;20112;-52
2022/11/01 11:07:41;;;;;;;6.25;1.63;;;17.90;55.30;;;;;;5029774;28;20457;-53
2022/11/01 11:10:21;;;;;;;5.85;1.75;;;17.90;55.30;;;;;;5025559;28;20042;-52
2022/11/01 11:12:54;;;;;;;13.82;2.60;;;17.90;54.90;;;;;;5040296;28;20065;-52
2022/11/01 11:15:49;;;;;;;6.25;1.15;;;17.90;55.40;;;;;;5035099;28;20050;-50
2022/11/01 11:18:48;;;;;;;4.60;1.23;;;18.00;55.30;;;;;;5025874;28;20829;-51
2022/11/01 11:21:15;;;;;;;4.43;1.20;;;18.00;55.10;;;;;;5027736;28;20049;-53
2022/11/01 11:23:44;;;;;;;5.65;1.38;;;18.10;54.90;;;;;;5022344;28;20047;-53
2022/11/01 11:26:15;;;;;;;3.95;1.08;;;18.10;54.70;;;;;;5035928;28;20045;-50
2022/11/01 11:28:46;;;;;;;8.82;1.85;;;18.00;54.70;;;;;;5037749;28;20106;-49
2022/11/01 11:31:27;;;;;;;5.32;1.35;;;18.10;54.60;;;;;;5041598;28;20098;-53
2022/11/01 11:34:22;;;;;;;5.95;1.40;;;18.10;54.40;;;;;;5045856;28;20045;-53
2022/11/01 11:36:50;;;;;;;5.28;2.17;;;18.20;54.30;;;;;;5026818;28;20052;-53
2022/11/01 11:39:31;;;;;;;6.78;1.75;;;18.20;54.50;;;;;;5040722;28;20036;-53
2022/11/01 11:42:17;;;;;;;3.10;1.58;;;18.20;54.40;;;;;;5041189;28;20067;-50
2022/11/01 11:44:47;;;;;;;7.03;1.50;;;18.20;54.40;;;;;;5048705;28;20057;-54
2022/11/01 11:47:26;;;;;;;5.68;1.77;;;18.20;54.40;;;;;;5028653;28;20404;-50
2022/11/01 11:49:59;;;;;;;6.43;1.55;;;18.20;54.60;;;;;;5040165;28;20124;-50
2022/11/01 11:52:31;;;;;;;5.75;1.63;;;18.20;54.50;;;;;;5049486;28;20431;-49
2022/11/01 11:55:04;;;;;;;4.50;1.40;;;18.20;54.40;;;;;;5041635;28;20049;-53
2022/11/01 11:57:34;;;;;;;6.22;1.10;;;18.20;54.40;;;;;;5031573;28;20053;-51
2022/11/01 12:00:04;;;;;;;6.60;1.30;;;18.30;54.50;;;;;;5040205;28;20635;-53
2022/11/01 12:02:39;;;;;;;6.80;1.40;;;18.30;54.10;;;;;;5049534;28;20048;-50
2022/11/01 12:05:11;;;;;;;8.20;2.08;;;18.30;54.30;;;;;;5032456;28;20567;-54
2022/11/01 12:07:51;;;;;;;3.75;0.95;;;18.30;54.40;;;;;;5038532;28;20140;-50
2022/11/01 12:10:34;;;;;;;8.32;2.05;;;18.30;54.10;;;;;;5036168;28;20052;-50
2022/11/01 12:13:03;;;;;;;5.43;1.80;;;18.40;53.90;;;;;;5048033;28;20067;-51
2022/11/01 12:15:41;;;;;;;5.45;1.10;;;18.40;54.20;;;;;;5028958;28;20124;-52
2022/11/01 12:18:18;;;;;;;13.35;2.40;;;18.40;54.10;;;;;;5040104;28;20040;-50
2022/11/01 12:20:52;;;;;;;5.97;1.52;;;18.50;53.50;;;;;;5048561;28;20541;-51
2022/11/01 12:23:33;;;;;;;4.60;1.58;;;18.50;53.70;;;;;;5034150;28;20092;-54
2022/11/01 12:26:07;;;;;;;5.93;1.55;;;18.50;53.70;;;;;;5037579;28;20064;-51
2022/11/01 12:28:50;;;;;;;3.83;1.42;;;18.50;53.60;;;;;;5027838;28;20052;-53
2022/11/01 12:31:20;;;;;;;4.70;1.30;;;18.60;53.90;;;;;;5040328;28;20041;-50
2022/11/01 12:34:29;;;;;;;7.97;1.42;;;18.60;53.90;;;;;;5037332;28;20502;-52
2022/11/01 12:37:11;;;;;;;4.50;1.48;;;18.70;53.70;;;;;;5041747;28;20049;-50
2022/11/01 12:39:53;;;;;;;5.57;1.80;;;18.70;53.30;;;;;;5052311;28;20049;-53
2022/11/01 12:42:48;;;;;;;7.57;1.15;;;18.70;53.70;;;;;;5028706;28;20072;-51
2022/11/01 12:45:27;;;;;;;4.82;1.27;;;18.70;53.30;;;;;;5028220;28;20383;-53
2022/11/01 12:48:02;;;;;;;5.72;1.80;;;18.70;53.30;;;;;;5026113;28;20076;-53
2022/11/01 12:50:46;;;;;;;2.65;0.80;;;18.80;53.30;;;;;;5031416;28;20044;-49
2022/11/01 12:53:18;;;;;;;6.75;0.93;;;18.80;53.00;;;;;;5029791;28;20132;-50
2022/11/01 12:55:50;;;;;;;9.73;1.17;;;18.80;53.10;;;;;;5028949;28;20081;-50
2022/11/01 12:58:22;;;;;;;7.65;1.27;;;18.80;53.00;;;;;;5021985;28;20194;-51
2022/11/01 13:01:13;;;;;;;7.20;1.85;;;18.90;53.30;;;;;;5028569;28;20762;-51
2022/11/01 13:04:12;;;;;;;3.33;1.10;;;18.90;53.40;;;;;;5027085;28;20050;-51
2022/11/01 13:07:01;;;;;;;4.05;1.33;;;19.00;53.30;;;;;;5015315;28;20135;-53
2022/11/01 13:10:09;;;;;;;5.82;1.15;;;19.00;52.60;;;;;;5027322;28;20052;-53
2022/11/01 13:13:02;;;;;;;9.50;1.80;;;19.00;52.80;;;;;;5030507;28;20044;-54
2022/11/01 13:15:33;;;;;;;4.30;1.02;;;19.10;52.60;;;;;;5025866;28;20053;-53
2022/11/01 13:18:26;;;;;;;6.28;1.75;;;19.10;53.00;;;;;;5026104;28;20053;-52
2022/11/01 13:21:12;;;;;;;3.88;0.80;;;19.10;52.30;;;;;;5029065;28;20041;-53
2022/11/01 13:23:53;;;;;;;5.57;1.17;;;19.20;53.20;;;;;;5024527;28;20101;-53
2022/11/01 13:26:34;;;;;;;3.50;1.38;;;19.20;53.30;;;;;;5022568;28;20045;-53
2022/11/01 13:29:38;;;;;;;7.25;1.52;;;19.20;52.90;;;;;;5019405;28;20709;-54